Portada
METAR-TAF:

METAR-TAF

Aeropuertos :

Logroño, España

Aeropuerto de Logroño-Agoncillo

latitud: 42-27N, longitud: 002-20W, altitud: 353 m

Observación

El informe se hizo hace 5 horas y 1 minutos, a las 22:00 UTC
Viento 8 kt del oeste
Temperatura 5°C
Humedad 81%
Presión 1028 hPa
Visibilidad 10 km o más
Nubes dispersas a una altura de 4400 ft

METAR: LELO 172200Z 28008KT 9999 SCT044 05/02 Q1028

Hora: 04:01 (03:01 UTC)

Pronóstico

El informe se hizo hace 1 hora y 1 minutos, a las 02:00 UTC
Pronóstico válido del 18 a las 03 UTC al 18 a las 12 UTC
Viento 8 kt del oeste
Visibilidad 10 km o más
Cielo nuboso a una altura de 3000 ft
Probabilidad 40% :
Temporalmente
del 18 a las 05 UTC al 18 a las 10 UTC
Cielo nuboso a una altura de 1400 ft

TAF: LELO 180200Z 1803/1812 28008KT 9999 BKN030 PROB40 TEMPO 1805/1810 BKN014

Observaciones y pronósticos meteorológicos de más de 4000 aeropuertos (mensajes METAR y TAF).

Los puntos amarillos y rojos representan las estaciones disponibles.

Ponga el ratón en el punto deseado para ver el nombre de la estación.

Haga clic para ver las observaciones y los pronósticos meteorológicos.

Para cambiar el mapa : haga clic en los botones verdes con una cruz de color negro para hacer un zoom, en el botón verde con un guión para alejar o en las flechas verdes para mapas adyacentes.


METAR-TAF: